Time;durP1;ratioP1;P1;durP2;ratioP2;P2;SDS_P1;SDS_P2;PMS_P1;PMS_P2;Temp;Humidity;BMP_temperature;BMP_pressure;BME280_temperature;BME280_humidity;BME280_pressure;Samples;Min_cycle;Max_cycle;Signal;HPM_P1;HPM_P2
2021/09/04 00:01:09;;;;;;;;;24.25;21.00;;;;;25.21;47.52;101146.91;5095311;27;51911;-64
2021/09/04 00:03:34;;;;;;;;;19.50;19.50;;;;;25.21;47.55;101155.22;5095348;27;51008;-63
2021/09/04 00:06:00;;;;;;;;;17.75;17.75;;;;;25.21;47.36;101155.22;5093204;27;51292;-64
2021/09/04 00:08:25;;;;;;;;;21.75;18.75;;;;;25.20;47.22;101153.53;5092764;27;51084;-62
2021/09/04 00:10:51;;;;;;;;;18.75;17.00;;;;;25.19;47.42;101149.06;5080285;27;51189;-62
2021/09/04 00:13:16;;;;;;;;;21.00;19.50;;;;;25.19;47.64;101159.31;5084154;27;51103;-62
2021/09/04 00:15:42;;;;;;;;;21.00;19.25;;;;;25.19;47.36;101151.00;5057911;27;51182;-61
2021/09/04 00:18:07;;;;;;;;;17.50;17.00;;;;;25.18;47.43;101158.47;5087732;27;51218;-61
2021/09/04 00:20:33;;;;;;;;;17.75;15.50;;;;;25.18;47.46;101150.16;5075964;27;52761;-61
2021/09/04 00:22:58;;;;;;;;;19.75;19.25;;;;;25.17;47.75;101150.41;5088077;27;51079;-61
2021/09/04 00:25:24;;;;;;;;;22.25;17.50;;;;;25.17;47.43;101144.88;5085999;27;51341;-63
2021/09/04 00:27:49;;;;;;;;;19.00;18.25;;;;;25.17;47.35;101151.25;5082260;27;51272;-62
2021/09/04 00:30:15;;;;;;;;;21.25;19.25;;;;;25.16;47.43;101152.34;5088443;27;51916;-62
2021/09/04 00:32:41;;;;;;;;;23.25;20.25;;;;;25.17;47.47;101148.50;5085625;27;50969;-63
2021/09/04 00:35:07;;;;;;;;;19.00;18.50;;;;;25.16;47.43;101143.19;5075845;27;51139;-63
2021/09/04 00:37:32;;;;;;;;;18.75;16.00;;;;;25.17;47.58;101142.09;5076193;27;51359;-62
2021/09/04 00:39:57;;;;;;;;;18.50;18.00;;;;;25.15;47.37;101136.81;5077529;27;52085;-62
2021/09/04 00:42:23;;;;;;;;;16.50;16.25;;;;;25.14;47.38;101129.59;5092352;27;51098;-63
2021/09/04 00:44:48;;;;;;;;;16.50;16.50;;;;;25.15;47.42;101139.59;5076586;27;51387;-63
2021/09/04 00:47:14;;;;;;;;;21.50;18.50;;;;;25.15;47.52;101133.19;5076664;27;51621;-62
2021/09/04 00:49:40;;;;;;;;;17.75;16.25;;;;;25.13;47.47;101136.22;5079088;27;52018;-63
2021/09/04 00:52:06;;;;;;;;;18.25;16.75;;;;;25.12;47.20;101131.78;5075574;27;51131;-62
2021/09/04 00:54:33;;;;;;;;;20.00;16.75;;;;;25.13;47.74;101143.69;5089174;27;51203;-62
2021/09/04 00:56:58;;;;;;;;;18.00;18.00;;;;;25.12;47.70;101144.78;5094933;27;51149;-63
2021/09/04 00:59:25;;;;;;;;;18.25;17.00;;;;;25.12;47.64;101142.00;5094361;27;51955;-62
2021/09/04 01:01:50;;;;;;;;;19.00;18.00;;;;;25.11;47.51;101143.91;5076073;27;51415;-63
2021/09/04 01:04:16;;;;;;;;;18.75;18.00;;;;;25.11;47.88;101134.75;5078531;27;51084;-62
2021/09/04 01:06:41;;;;;;;;;18.00;16.25;;;;;25.12;47.57;101140.09;5057455;27;51228;-63
2021/09/04 01:09:07;;;;;;;;;16.00;16.00;;;;;25.10;47.35;101139.47;5093105;27;51400;-62
2021/09/04 01:11:32;;;;;;;;;16.00;16.00;;;;;25.11;47.48;101138.38;5094882;27;50955;-61
2021/09/04 01:13:58;;;;;;;;;19.00;18.50;;;;;25.10;47.62;101130.31;5091524;27;51165;-62
2021/09/04 01:16:33;;;;;;;;;14.50;14.50;;;;;25.09;47.71;101129.47;5077368;27;51149;-62
2021/09/04 01:18:59;;;;;;;;;15.75;15.75;;;;;25.09;47.71;101135.00;5074028;27;53459;-61
2021/09/04 01:21:24;;;;;;;;;16.25;14.75;;;;;25.09;47.77;101142.47;5094343;27;51154;-62
2021/09/04 01:23:49;;;;;;;;;17.50;15.25;;;;;25.09;47.72;101139.72;5087320;27;51118;-62
2021/09/04 01:26:14;;;;;;;;;17.50;17.50;;;;;25.08;47.50;101136.09;5091033;27;51482;-62
2021/09/04 01:28:40;;;;;;;;;18.25;16.00;;;;;25.07;47.31;101131.66;5092972;27;51694;-62
2021/09/04 01:31:07;;;;;;;;;19.25;16.75;;;;;25.08;47.73;101129.72;5086058;27;51216;-62
2021/09/04 01:33:32;;;;;;;;;17.50;15.75;;;;;25.07;47.63;101128.03;5100526;27;51047;-61
2021/09/04 01:35:58;;;;;;;;;24.25;19.75;;;;;25.06;47.66;101132.75;5101347;27;51269;-62
2021/09/04 01:38:23;;;;;;;;;20.25;19.50;;;;;25.07;47.50;101133.56;5090353;27;51821;-62
2021/09/04 01:40:49;;;;;;;;;13.75;13.75;;;;;25.06;47.75;101127.19;5101971;27;51139;-63
2021/09/04 01:43:14;;;;;;;;;17.25;16.50;;;;;25.04;47.37;101126.59;5084994;27;52001;-61
2021/09/04 01:45:39;;;;;;;;;23.00;20.25;;;;;25.06;47.69;101131.91;5095914;27;51270;-60
2021/09/04 01:48:05;;;;;;;;;15.50;14.50;;;;;25.05;47.55;101128.28;5099275;27;51312;-60
2021/09/04 01:50:31;;;;;;;;;19.50;17.75;;;;;25.04;47.45;101133.00;5081661;27;51002;-59
2021/09/04 01:52:57;;;;;;;;;19.00;18.75;;;;;25.04;47.47;101129.38;5081900;27;51188;-59
2021/09/04 01:55:23;;;;;;;;;20.25;18.25;;;;;25.02;47.57;101131.56;5097835;27;51138;-59
2021/09/04 01:57:49;;;;;;;;;20.25;17.25;;;;;25.02;47.52;101135.16;5081054;27;52366;-59
2021/09/04 02:00:16;;;;;;;;;18.25;16.50;;;;;25.01;47.48;101129.81;5090790;27;51213;-59
2021/09/04 02:02:42;;;;;;;;;16.50;15.75;;;;;24.99;47.43;101118.13;5100877;27;51211;-59
2021/09/04 02:05:09;;;;;;;;;16.00;16.00;;;;;24.98;47.48;101122.00;5100135;27;51021;-59
2021/09/04 02:07:35;;;;;;;;;23.00;19.50;;;;;24.97;47.52;101125.88;5099417;27;52013;-59
2021/09/04 02:10:01;;;;;;;;;18.00;18.00;;;;;24.96;47.44;101126.94;5087296;27;50979;-59
2021/09/04 02:12:26;;;;;;;;;18.25;16.75;;;;;24.95;47.61;101116.97;5091441;27;51524;-59
2021/09/04 02:14:51;;;;;;;;;21.50;18.25;;;;;24.94;47.64;101118.88;5082627;27;50966;-59
2021/09/04 02:17:17;;;;;;;;;21.00;16.75;;;;;24.93;47.48;101119.13;5095855;27;51787;-59
2021/09/04 02:19:43;;;;;;;;;18.25;16.50;;;;;24.92;47.57;101111.91;5100520;27;51095;-59
2021/09/04 02:22:08;;;;;;;;;20.00;16.00;;;;;24.90;47.40;101114.06;5101021;27;51392;-59
2021/09/04 02:24:34;;;;;;;;;20.50;18.00;;;;;24.90;47.63;101116.84;5098305;27;51318;-59
2021/09/04 02:26:59;;;;;;;;;18.75;17.50;;;;;24.89;47.48;101106.84;5091215;27;51164;-59
2021/09/04 02:29:25;;;;;;;;;16.50;16.25;;;;;24.88;47.67;101110.72;5081192;27;51036;-59
2021/09/04 02:31:50;;;;;;;;;15.50;15.50;;;;;24.88;47.73;101113.47;5081460;27;51314;-59
2021/09/04 02:34:16;;;;;;;;;20.25;18.00;;;;;24.87;47.37;101114.56;5089050;27;51108;-59
2021/09/04 02:36:41;;;;;;;;;17.50;15.00;;;;;24.86;47.38;101112.88;5098043;27;51137;-59
2021/09/04 02:39:07;;;;;;;;;17.50;16.25;;;;;24.86;47.52;101118.44;5092080;27;50985;-59
2021/09/04 02:41:33;;;;;;;;;19.00;15.25;;;;;24.84;47.20;101112.28;5080127;27;51648;-59
2021/09/04 02:43:58;;;;;;;;;18.00;17.75;;;;;24.83;47.65;101117.00;5086284;27;51220;-59
2021/09/04 02:46:24;;;;;;;;;16.25;15.25;;;;;24.83;47.38;101110.63;5087809;27;51252;-58
2021/09/04 02:48:49;;;;;;;;;22.00;17.75;;;;;24.82;47.41;101108.94;5078811;27;51123;-58
2021/09/04 02:51:15;;;;;;;;;16.50;15.75;;;;;24.81;47.48;101115.56;5082272;27;51528;-59
2021/09/04 02:53:40;;;;;;;;;19.25;16.50;;;;;24.79;47.30;101118.56;5095202;27;51211;-59
2021/09/04 02:56:05;;;;;;;;;19.75;17.00;;;;;24.79;47.33;101110.25;5088861;27;52716;-59
2021/09/04 02:58:31;;;;;;;;;21.00;16.75;;;;;24.79;47.20;101117.72;5077672;27;50980;-59
2021/09/04 03:00:56;;;;;;;;;17.00;15.00;;;;;24.79;47.39;101118.56;5080062;27;51034;-59
2021/09/04 03:03:21;;;;;;;;;19.00;17.00;;;;;24.78;47.38;101125.19;5082215;27;51049;-59
2021/09/04 03:05:47;;;;;;;;;15.75;15.50;;;;;24.77;47.65;101123.50;5085667;27;51810;-59
2021/09/04 03:08:12;;;;;;;;;14.00;14.00;;;;;24.76;47.45;101124.59;5087884;27;51146;-59
2021/09/04 03:10:37;;;;;;;;;13.25;13.25;;;;;24.74;47.52;101112.91;5095978;27;51103;-60
2021/09/04 03:13:03;;;;;;;;;15.50;15.25;;;;;24.73;47.24;101114.84;5096042;27;51174;-59
2021/09/04 03:15:28;;;;;;;;;14.50;14.00;;;;;24.72;47.22;101115.94;5084482;27;51145;-59
2021/09/04 03:17:54;;;;;;;;;17.50;16.25;;;;;24.72;47.39;101115.94;5079936;27;50980;-58
2021/09/04 03:20:20;;;;;;;;;15.50;13.50;;;;;24.71;47.48;101103.19;5097015;27;51206;-59
2021/09/04 03:22:45;;;;;;;;;16.00;14.25;;;;;24.69;47.59;101108.09;5088203;27;51352;-58
2021/09/04 03:25:11;;;;;;;;;13.50;13.00;;;;;24.69;47.13;101101.72;5094552;27;51808;-58
2021/09/04 03:27:37;;;;;;;;;15.50;13.75;;;;;24.68;46.92;101111.97;5082024;27;51043;-59
2021/09/04 03:30:03;;;;;;;;;14.25;12.00;;;;;24.68;46.89;101114.72;5077353;27;51233;-58
2021/09/04 03:32:28;;;;;;;;;13.00;11.75;;;;;24.68;47.19;101120.25;5083831;27;50987;-58
2021/09/04 03:34:55;;;;;;;;;17.25;15.25;;;;;24.68;47.23;101116.66;5083972;27;51921;-59
2021/09/04 03:37:21;;;;;;;;;15.50;14.25;;;;;24.66;47.25;101119.66;5080247;27;51018;-59
2021/09/04 03:39:47;;;;;;;;;16.75;14.75;;;;;24.66;47.24;101116.91;5097121;27;51124;-59
2021/09/04 03:42:12;;;;;;;;;12.50;12.50;;;;;24.66;47.36;101116.06;5096412;27;50988;-59
2021/09/04 03:44:37;;;;;;;;;13.75;12.25;;;;;24.66;47.32;101119.66;5094109;27;51502;-59
2021/09/04 03:47:03;;;;;;;;;16.00;16.00;;;;;24.64;47.35;101119.09;5077645;27;50987;-58
2021/09/04 03:49:29;;;;;;;;;17.50;13.75;;;;;24.64;46.95;101115.47;5085925;27;51121;-58
2021/09/04 03:51:54;;;;;;;;;17.50;10.50;;;;;24.63;47.35;101114.63;5078683;27;51239;-58
2021/09/04 03:54:20;;;;;;;;;16.75;16.75;;;;;24.63;47.16;101109.09;5082557;27;51055;-58
2021/09/04 03:56:45;;;;;;;;;15.75;15.75;;;;;24.61;47.36;101108.50;5078152;27;50990;-58
2021/09/04 03:59:10;;;;;;;;;17.00;15.00;;;;;24.62;47.50;101104.63;5077064;27;51076;-58
2021/09/04 04:01:36;;;;;;;;;15.00;13.75;;;;;24.61;47.26;101110.44;5077080;27;51079;-58
2021/09/04 04:04:01;;;;;;;;;18.25;16.00;;;;;24.60;47.01;101109.59;5080102;27;51891;-58
2021/09/04 04:06:26;;;;;;;;;15.50;13.25;;;;;24.60;47.43;101101.28;5093058;27;51101;-58
2021/09/04 04:08:54;;;;;;;;;13.00;13.00;;;;;24.60;47.48;101105.97;5081092;27;51040;-58
2021/09/04 04:11:19;;;;;;;;;17.50;14.25;;;;;24.59;47.30;101098.72;5080585;27;51209;-58
2021/09/04 04:13:45;;;;;;;;;15.00;15.00;;;;;24.59;47.31;101095.97;5078817;27;51722;-58
2021/09/04 04:16:10;;;;;;;;;16.00;15.25;;;;;24.58;47.34;101097.88;5088334;27;51064;-59
2021/09/04 04:18:36;;;;;;;;;17.75;16.00;;;;;24.58;47.40;101102.59;5090881;27;51227;-58
2021/09/04 04:21:02;;;;;;;;;17.50;16.00;;;;;24.57;47.53;101096.19;5076910;27;51180;-59
2021/09/04 04:23:27;;;;;;;;;15.00;13.00;;;;;24.56;47.34;101099.22;5076346;27;51733;-58
2021/09/04 04:25:53;;;;;;;;;14.75;14.75;;;;;24.56;47.43;101102.84;5078320;27;51084;-58
2021/09/04 04:28:18;;;;;;;;;15.25;14.50;;;;;24.55;47.49;101105.84;5094043;27;51105;-58
2021/09/04 04:30:44;;;;;;;;;17.00;13.50;;;;;24.55;47.42;101098.38;5076573;27;51275;-58
2021/09/04 04:33:09;;;;;;;;;15.75;14.25;;;;;24.54;47.49;101096.69;5075916;27;51777;-59
2021/09/04 04:35:35;;;;;;;;;15.75;14.50;;;;;24.55;47.65;101100.31;5094682;27;51104;-59
2021/09/04 04:38:00;;;;;;;;;16.00;16.00;;;;;24.54;47.40;101099.47;5088228;27;51207;-58
2021/09/04 04:40:26;;;;;;;;;13.00;9.00;;;;;24.53;47.42;101099.72;5076445;27;51329;-59
2021/09/04 04:42:51;;;;;;;;;14.50;13.75;;;;;24.53;47.44;101099.72;5076068;27;52629;-58
2021/09/04 04:45:16;;;;;;;;;14.00;13.75;;;;;24.52;47.64;101107.19;5088371;27;51249;-59
2021/09/04 04:47:42;;;;;;;;;16.00;16.00;;;;;24.52;47.50;101095.25;5083273;27;51118;-59
2021/09/04 04:50:08;;;;;;;;;15.00;13.50;;;;;24.52;47.46;101098.88;5083882;27;51134;-59
2021/09/04 04:52:33;;;;;;;;;16.75;15.25;;;;;24.51;47.33;101093.59;5078478;27;51971;-59
2021/09/04 04:54:58;;;;;;;;;15.25;14.25;;;;;24.50;47.84;101098.28;5092909;27;51118;-62
2021/09/04 04:57:24;;;;;;;;;17.00;16.75;;;;;24.50;47.25;101098.28;5078005;27;51521;-58
2021/09/04 04:59:49;;;;;;;;;21.50;16.75;;;;;24.50;47.28;101101.06;5085477;27;51142;-59
2021/09/04 05:02:14;;;;;;;;;15.75;14.75;;;;;24.49;47.53;101102.16;5084055;27;51966;-59
2021/09/04 05:04:40;;;;;;;;;19.50;15.75;;;;;24.48;47.31;101104.03;5084578;27;51264;-59
2021/09/04 05:07:05;;;;;;;;;19.50;15.25;;;;;24.47;47.24;101101.50;5079668;27;51013;-59
2021/09/04 05:09:30;;;;;;;;;16.67;16.67;;;;;24.46;47.64;101106.22;5089165;27;51087;-59
2021/09/04 05:11:56;;;;;;;;;16.50;14.50;;;;;24.46;47.79;101105.38;5088037;27;51802;-59
2021/09/04 05:14:21;;;;;;;;;17.00;15.75;;;;;24.46;47.94;101110.91;5088823;27;50973;-59
2021/09/04 05:16:46;;;;;;;;;19.75;17.25;;;;;24.45;47.40;101107.31;5083169;27;51118;-59
2021/09/04 05:19:12;;;;;;;;;18.50;15.25;;;;;24.45;47.71;101103.69;5093904;27;51270;-59
2021/09/04 05:21:37;;;;;;;;;16.00;14.75;;;;;24.44;47.99;101113.09;5078266;27;52073;-59
2021/09/04 05:24:03;;;;;;;;;20.50;15.50;;;;;24.43;47.78;101109.47;5079771;27;51101;-59
2021/09/04 05:26:28;;;;;;;;;15.50;14.00;;;;;24.43;47.71;101108.63;5092213;27;50982;-59
2021/09/04 05:28:53;;;;;;;;;17.00;15.00;;;;;24.43;47.57;101115.00;5084204;27;51177;-59
2021/09/04 05:31:19;;;;;;;;;20.00;16.25;;;;;24.43;47.54;101115.00;5081649;27;52128;-59
2021/09/04 05:33:44;;;;;;;;;15.25;13.00;;;;;24.42;47.62;101110.56;5093166;27;51048;-59
2021/09/04 05:36:09;;;;;;;;;16.25;16.25;;;;;24.43;47.65;101116.94;5081131;27;51154;-59
2021/09/04 05:38:36;;;;;;;;;20.50;16.75;;;;;24.43;47.92;101119.72;5083200;27;51464;-59
2021/09/04 05:41:02;;;;;;;;;18.75;17.00;;;;;24.41;47.57;101119.13;5086284;27;52039;-59
2021/09/04 05:43:28;;;;;;;;;16.75;16.75;;;;;24.42;47.94;101123.56;5089894;27;51262;-59
2021/09/04 05:45:53;;;;;;;;;20.25;18.00;;;;;24.42;47.98;101116.09;5087717;27;51519;-59
2021/09/04 05:48:18;;;;;;;;;16.75;15.75;;;;;24.42;47.69;101120.81;5091432;27;51417;-58
2021/09/04 05:50:44;;;;;;;;;16.25;14.00;;;;;24.41;47.73;101122.72;5085347;27;51291;-59
2021/09/04 05:53:09;;;;;;;;;18.00;16.25;;;;;24.41;47.81;101113.59;5075535;27;50997;-58
2021/09/04 05:55:34;;;;;;;;;16.50;16.00;;;;;24.41;47.72;101119.97;5082852;27;51123;-59
2021/09/04 05:58:00;;;;;;;;;19.50;16.25;;;;;24.39;47.80;101122.13;5094313;27;50996;-58
2021/09/04 06:00:25;;;;;;;;;19.00;16.75;;;;;24.40;47.99;101128.50;5090706;27;51262;-59
2021/09/04 06:02:51;;;;;;;;;18.00;18.00;;;;;24.39;47.87;101124.91;5075060;27;51129;-59
2021/09/04 06:05:16;;;;;;;;;21.75;18.25;;;;;24.39;47.70;101126.84;5078416;27;51202;-58
2021/09/04 06:07:41;;;;;;;;;19.25;18.75;;;;;24.40;47.97;101134.91;5080472;27;51401;-58
2021/09/04 06:10:07;;;;;;;;;22.00;21.25;;;;;24.38;47.94;101130.66;5083794;27;51290;-59
2021/09/04 06:12:32;;;;;;;;;21.25;18.00;;;;;24.39;47.97;101141.50;5085943;27;51021;-58
2021/09/04 06:14:58;;;;;;;;;20.25;18.25;;;;;24.40;47.85;101139.59;5086694;27;51091;-59
2021/09/04 06:17:23;;;;;;;;;18.25;18.00;;;;;24.40;47.81;101142.34;5078766;27;51775;-60
2021/09/04 06:19:48;;;;;;;;;21.25;21.25;;;;;24.38;47.92;101153.66;5093371;27;51398;-59
2021/09/04 06:22:14;;;;;;;;;20.00;19.00;;;;;24.39;48.05;101147.06;5088683;27;51223;-59
2021/09/04 06:24:39;;;;;;;;;20.75;20.50;;;;;24.37;47.75;101143.66;5090763;27;51140;-59
2021/09/04 06:27:04;;;;;;;;;18.75;18.25;;;;;24.37;48.22;101143.66;5089096;27;51328;-60
2021/09/04 06:29:30;;;;;;;;;15.00;15.00;;;;;24.39;48.49;101151.75;5078948;27;51178;-59
2021/09/04 06:31:55;;;;;;;;;18.25;18.25;;;;;24.40;48.34;101151.50;5078286;27;51040;-58
2021/09/04 06:34:20;;;;;;;;;18.50;16.75;;;;;24.40;48.40;101147.91;5078460;27;51639;-59
2021/09/04 06:36:46;;;;;;;;;21.75;19.25;;;;;24.40;47.80;101148.75;5095709;27;51207;-59
2021/09/04 06:39:11;;;;;;;;;19.25;17.00;;;;;24.39;48.12;101149.81;5097869;27;51099;-59
2021/09/04 06:41:36;;;;;;;;;18.00;18.00;;;;;24.38;47.97;101156.41;5097741;27;51094;-59
2021/09/04 06:44:02;;;;;;;;;18.25;17.50;;;;;24.37;48.00;101151.13;5087208;27;51171;-59
2021/09/04 06:46:32;;;;;;;;;19.25;16.00;;;;;24.37;48.14;101149.19;5087612;27;51029;-59
2021/09/04 06:48:57;;;;;;;;;18.75;15.75;;;;;24.38;48.38;101150.03;5085718;27;52267;-61
2021/09/04 06:51:23;;;;;;;;;20.75;18.50;;;;;24.37;48.88;101143.66;5087078;27;51058;-61
2021/09/04 06:53:48;;;;;;;;;18.00;16.25;;;;;24.38;48.57;101142.56;5083742;27;51147;-60
2021/09/04 06:56:15;;;;;;;;;18.00;18.00;;;;;24.40;48.56;101153.44;5095665;27;51394;-60
2021/09/04 06:58:40;;;;;;;;;17.00;16.25;;;;;24.40;48.67;101147.91;5097172;27;51961;-60
2021/09/04 07:01:05;;;;;;;;;19.25;16.25;;;;;24.42;48.75;101145.72;5097374;27;51088;-61
2021/09/04 07:03:32;;;;;;;;;20.75;18.25;;;;;24.40;48.73;101151.50;5086508;27;51011;-63
2021/09/04 07:05:57;;;;;;;;;16.50;14.50;;;;;24.43;49.55;101156.56;5083724;27;50964;-64
2021/09/04 07:08:23;;;;;;;;;17.50;15.50;;;;;24.44;49.77;101152.69;5093609;27;51991;-69
2021/09/04 07:10:48;;;;;;;;;15.00;14.25;;;;;24.45;49.74;101146.06;5086264;27;51159;-64
2021/09/04 07:13:13;;;;;;;;;18.50;15.75;;;;;24.47;50.02;101154.97;5083135;27;51174;-60
2021/09/04 07:15:40;;;;;;;;;21.00;18.00;;;;;24.47;49.93;101148.59;5091473;27;51148;-59
2021/09/04 07:18:06;;;;;;;;;19.50;17.75;;;;;24.49;49.86;101143.69;5082228;27;51960;-60
2021/09/04 07:20:31;;;;;;;;;7.00;5.00;;;;;24.52;49.65;101147.88;5093719;27;50949;-60
2021/09/04 07:22:56;;;;;;;;;16.75;14.25;;;;;24.52;50.05;101147.88;5094376;27;51142;-59
2021/09/04 07:25:22;;;;;;;;;18.25;15.50;;;;;24.53;50.15;101153.19;5095931;27;51235;-60
2021/09/04 07:27:47;;;;;;;;;16.25;15.50;;;;;24.54;50.18;101154.84;5088298;27;51139;-60
2021/09/04 07:30:15;;;;;;;;;17.00;15.25;;;;;24.55;50.33;101151.00;5088421;27;51002;-59
2021/09/04 07:32:41;;;;;;;;;18.00;16.00;;;;;24.57;50.34;101156.28;5094507;27;51100;-60
2021/09/04 07:35:07;;;;;;;;;20.00;16.00;;;;;24.57;50.56;101157.13;5095065;27;51142;-60
2021/09/04 07:37:32;;;;;;;;;20.50;18.25;;;;;24.59;50.31;101156.88;5084005;27;52919;-59
2021/09/04 07:39:57;;;;;;;;;17.25;16.50;;;;;24.59;50.78;101152.19;5086966;27;51016;-59
2021/09/04 07:42:24;;;;;;;;;18.75;17.50;;;;;24.62;50.75;101156.44;5094477;27;52270;-59
2021/09/04 07:44:50;;;;;;;;;16.50;14.00;;;;;24.63;50.88;101167.25;5084592;27;51302;-61
2021/09/04 07:47:15;;;;;;;;;19.00;15.50;;;;;24.65;51.10;101167.00;5085905;27;51039;-61
2021/09/04 07:49:40;;;;;;;;;17.75;16.50;;;;;24.68;50.77;101166.50;5093019;27;51038;-61
2021/09/04 07:52:06;;;;;;;;;22.25;18.00;;;;;24.67;50.83;101162.91;5080746;27;51256;-63
2021/09/04 07:54:31;;;;;;;;;15.50;15.00;;;;;24.68;50.73;101164.59;5081317;27;51415;-60
2021/09/04 07:56:57;;;;;;;;;20.50;17.00;;;;;24.70;50.70;101170.75;5088273;27;51813;-63
2021/09/04 07:59:22;;;;;;;;;20.00;17.75;;;;;24.70;50.99;101162.44;5081887;27;51250;-65
2021/09/04 08:01:47;;;;;;;;;18.75;17.50;;;;;24.70;50.70;101159.66;5079898;27;51225;-62
2021/09/04 08:04:14;;;;;;;;;17.25;16.25;;;;;24.70;50.38;101154.13;5080742;27;51373;-62
2021/09/04 08:06:39;;;;;;;;;18.50;18.50;;;;;24.71;50.55;101160.50;5076937;27;51934;-62
2021/09/04 08:09:05;;;;;;;;;19.75;18.50;;;;;24.71;50.88;101164.13;5075364;27;51820;-62
2021/09/04 08:11:30;;;;;;;;;23.50;20.25;;;;;24.73;51.21;101169.41;5075400;27;51163;-62
2021/09/04 08:13:55;;;;;;;;;22.50;19.50;;;;;24.74;51.33;101166.41;5089702;27;52183;-62
2021/09/04 08:16:21;;;;;;;;;17.25;16.25;;;;;24.76;51.35;101163.38;5087237;27;51666;-60
2021/09/04 08:18:46;;;;;;;;;22.25;18.00;;;;;24.77;51.86;101165.91;5071842;27;51595;-61
2021/09/04 08:21:12;;;;;;;;;18.75;17.00;;;;;24.79;51.77;101162.03;5095763;27;51149;-62
2021/09/04 08:23:37;;;;;;;;;22.25;19.50;;;;;24.80;51.95;101164.56;5092351;27;51123;-62
2021/09/04 08:26:02;;;;;;;;;18.00;16.75;;;;;24.82;51.79;101162.41;5090235;27;52199;-61
2021/09/04 08:28:28;;;;;;;;;21.00;20.50;;;;;24.85;52.07;101164.69;5094502;27;51184;-62
2021/09/04 08:30:53;;;;;;;;;25.00;20.25;;;;;24.86;52.26;101166.38;5093711;27;51153;-62
2021/09/04 08:33:19;;;;;;;;;20.75;17.25;;;;;24.89;52.62;101167.81;5093761;27;51147;-61
2021/09/04 08:35:45;;;;;;;;;22.00;19.00;;;;;24.92;52.62;101175.66;5090602;27;51878;-63
2021/09/04 08:38:11;;;;;;;;;21.25;18.25;;;;;24.94;52.88;101179.03;5092289;27;51615;-60
2021/09/04 08:40:42;;;;;;;;;23.50;21.00;;;;;24.97;53.42;101179.34;5086620;27;51091;-62
2021/09/04 08:43:08;;;;;;;;;22.50;21.00;;;;;25.01;53.55;101182.47;5089562;27;51357;-62
2021/09/04 08:45:34;;;;;;;;;25.00;22.25;;;;;25.05;53.73;101183.72;5083330;27;52109;-63
2021/09/04 08:48:00;;;;;;;;;21.75;18.75;;;;;25.09;53.84;101186.84;5085222;27;52327;-63
2021/09/04 08:50:26;;;;;;;;;20.25;16.25;;;;;25.12;53.86;101186.38;5085185;27;51226;-63
2021/09/04 08:52:53;;;;;;;;;22.50;19.75;;;;;25.16;53.98;101191.16;5090183;27;51116;-63
2021/09/04 08:55:19;;;;;;;;;25.50;19.00;;;;;25.20;54.04;101192.34;5082001;27;51222;-63
2021/09/04 08:57:45;;;;;;;;;25.25;20.50;;;;;25.25;54.05;101191.63;5093483;27;51055;-62
2021/09/04 09:00:11;;;;;;;;;28.75;20.00;;;;;25.27;54.08;101187.50;5092679;27;51025;-62
2021/09/04 09:02:37;;;;;;;;;26.50;22.50;;;;;25.29;54.00;101192.81;5086038;27;51272;-62
2021/09/04 09:05:09;;;;;;;;;22.00;20.00;;;;;25.30;54.03;101192.56;5076016;27;51987;-62
2021/09/04 09:07:42;;;;;;;;;21.00;19.75;;;;;25.31;53.98;101190.63;5075872;27;51146;-62
2021/09/04 09:10:30;;;;;;;;;24.75;21.25;;;;;25.32;53.98;101195.06;5075964;27;50997;-62
2021/09/04 09:12:55;;;;;;;;;19.00;18.50;;;;;25.32;53.83;101195.06;5076412;27;51138;-62
2021/09/04 09:15:24;;;;;;;;;21.00;18.75;;;;;25.35;54.01;101199.31;5085501;27;51698;-62
2021/09/04 09:18:10;;;;;;;;;22.00;20.00;;;;;25.36;53.53;101198.22;5089527;27;51431;-63
2021/09/04 09:20:38;;;;;;;;;22.00;20.75;;;;;25.38;53.73;101205.19;5075349;27;51158;-62
2021/09/04 09:23:09;;;;;;;;;22.75;20.50;;;;;25.37;53.80;101202.66;5075104;27;51216;-62
2021/09/04 09:25:35;;;;;;;;;27.25;20.25;;;;;25.38;53.41;101204.34;5081182;27;51026;-62
2021/09/04 09:28:02;;;;;;;;;24.50;22.00;;;;;25.39;54.00;101204.09;5091007;27;51796;-63
2021/09/04 09:30:32;;;;;;;;;19.50;19.25;;;;;25.39;53.21;101206.88;5086958;27;51047;-62
2021/09/04 09:32:57;;;;;;;;;25.00;19.00;;;;;25.40;53.91;101199.41;5089580;27;51027;-63
2021/09/04 09:35:38;;;;;;;;;24.50;20.50;;;;;25.41;53.78;101207.47;5093270;27;51029;-63
2021/09/04 09:38:05;;;;;;;;;20.00;19.75;;;;;25.42;53.82;101214.69;5075124;27;51371;-63
2021/09/04 09:40:32;;;;;;;;;25.25;21.75;;;;;25.43;54.01;101207.22;5086738;27;51429;-63
2021/09/04 09:42:57;;;;;;;;;24.75;20.25;;;;;25.43;53.94;101207.22;5093505;27;51227;-63
2021/09/04 09:45:40;;;;;;;;;19.50;18.75;;;;;25.44;53.63;101208.91;5082171;27;51137;-63
2021/09/04 09:48:06;;;;;;;;;22.00;16.75;;;;;25.45;54.09;101200.34;5078408;27;51162;-63
2021/09/04 09:50:34;;;;;;;;;23.25;19.25;;;;;25.46;54.11;101203.97;5083559;27;51126;-63
2021/09/04 09:53:00;;;;;;;;;18.50;17.50;;;;;25.46;53.94;101196.47;5089533;27;51123;-63
2021/09/04 09:55:27;;;;;;;;;19.75;19.00;;;;;25.49;54.30;101195.16;5091676;27;51929;-63
2021/09/04 09:57:55;;;;;;;;;19.50;17.50;;;;;25.52;54.27;101201.03;5077011;27;51339;-63
2021/09/04 10:00:20;;;;;;;;;18.25;18.25;;;;;25.55;54.20;101196.94;5095165;27;51138;-63
2021/09/04 10:02:46;;;;;;;;;18.25;16.00;;;;;25.57;54.07;101190.03;5080924;27;50961;-63
2021/09/04 10:05:14;;;;;;;;;21.50;20.50;;;;;25.60;54.32;101192.31;5093414;27;51765;-63
2021/09/04 10:07:40;;;;;;;;;21.25;18.50;;;;;25.63;54.41;101190.97;5094771;27;50963;-63
2021/09/04 10:10:06;;;;;;;;;16.50;16.00;;;;;25.67;54.36;101183.00;5087877;27;51346;-63
2021/09/04 10:12:32;;;;;;;;;20.00;17.00;;;;;25.69;54.26;101189.16;5082547;27;51231;-63
2021/09/04 10:14:57;;;;;;;;;20.50;15.75;;;;;25.72;54.23;101188.66;5093287;27;52578;-63
2021/09/04 10:17:23;;;;;;;;;19.00;18.00;;;;;25.74;54.35;101190.13;5069888;27;51207;-63
2021/09/04 10:19:49;;;;;;;;;19.50;17.25;;;;;25.75;54.33;101193.75;5094133;27;50974;-64
2021/09/04 10:22:15;;;;;;;;;18.25;14.75;;;;;25.76;54.00;101193.50;5091704;27;52537;-62
2021/09/04 10:24:48;;;;;;;;;16.75;15.50;;;;;25.78;54.24;101188.53;5095134;27;51792;-62
2021/09/04 10:27:27;;;;;;;;;16.25;15.00;;;;;25.79;53.83;101187.44;5095602;27;51752;-62
2021/09/04 10:29:53;;;;;;;;;23.75;18.50;;;;;25.81;54.29;101184.41;5095007;27;51273;-61
2021/09/04 10:32:19;;;;;;;;;21.50;17.75;;;;;25.82;53.99;101181.38;5089292;27;51005;-61
2021/09/04 10:34:47;;;;;;;;;20.75;18.50;;;;;25.83;53.74;101180.28;5096694;27;51665;-61
2021/09/04 10:37:15;;;;;;;;;18.50;17.50;;;;;25.85;53.96;101175.34;5095750;27;51455;-63
2021/09/04 10:39:55;;;;;;;;;18.25;15.75;;;;;25.88;53.73;101185.94;5094269;27;51172;-62
2021/09/04 10:42:21;;;;;;;;;20.00;18.75;;;;;25.90;53.90;101194.84;5095657;27;51108;-62
2021/09/04 10:44:48;;;;;;;;;23.00;20.33;;;;;25.93;53.89;101184.31;5078051;27;52790;-62
2021/09/04 10:47:15;;;;;;;;;19.00;17.00;;;;;25.95;54.05;101188.56;5072519;27;51134;-63
2021/09/04 10:49:42;;;;;;;;;23.00;19.00;;;;;25.97;53.67;101180.81;5059494;28;51275;-62
2021/09/04 10:52:08;;;;;;;;;19.75;19.75;;;;;25.98;53.58;101182.50;5069028;28;53129;-62
2021/09/04 10:55:00;;;;;;;;;22.25;19.75;;;;;25.99;53.41;101181.41;5054156;28;53004;-62
2021/09/04 10:57:27;;;;;;;;;22.50;18.25;;;;;26.01;53.35;101181.16;5071575;27;51156;-62
2021/09/04 11:00:17;;;;;;;;;23.25;20.00;;;;;26.04;53.61;101187.03;5069364;28;51272;-61
2021/09/04 11:02:58;;;;;;;;;17.50;17.00;;;;;26.06;53.56;101181.25;5066147;27;51083;-61
2021/09/04 11:05:23;;;;;;;;;21.00;19.00;;;;;26.07;53.93;101163.50;5069053;28;51878;-61